sensor_id;sensor_type;location;lat;lon;timestamp;temperature;humidity
7002;DHT22;3541;53.230;10.518;2024-03-23T00:52:02;8.50;99.90
7002;DHT22;3541;53.230;10.518;2024-03-23T00:54:29;8.60;99.90
7002;DHT22;3541;53.230;10.518;2024-03-23T00:56:54;8.60;99.90
7002;DHT22;3541;53.230;10.518;2024-03-23T00:59:21;8.60;99.90
7002;DHT22;3541;53.230;10.518;2024-03-23T01:01:47;8.70;99.90
7002;DHT22;3541;53.230;10.518;2024-03-23T01:04:14;8.60;99.90
7002;DHT22;3541;53.230;10.518;2024-03-23T01:06:40;8.70;99.90
7002;DHT22;3541;53.230;10.518;2024-03-23T01:09:08;8.60;99.90
7002;DHT22;3541;53.230;10.518;2024-03-23T01:11:36;8.60;99.90
7002;DHT22;3541;53.230;10.518;2024-03-23T01:14:02;8.60;99.90
7002;DHT22;3541;53.230;10.518;2024-03-23T01:16:28;8.60;99.90
7002;DHT22;3541;53.230;10.518;2024-03-23T01:18:55;8.60;99.90
7002;DHT22;3541;53.230;10.518;2024-03-23T01:21:20;8.60;99.90
7002;DHT22;3541;53.230;10.518;2024-03-23T01:23:47;8.60;99.90
7002;DHT22;3541;53.230;10.518;2024-03-23T01:26:14;8.70;99.90
7002;DHT22;3541;53.230;10.518;2024-03-23T01:28:40;8.70;99.90
7002;DHT22;3541;53.230;10.518;2024-03-23T01:31:06;8.70;99.90
7002;DHT22;3541;53.230;10.518;2024-03-23T01:33:32;8.50;99.90
7002;DHT22;3541;53.230;10.518;2024-03-23T01:35:58;8.50;99.90
7002;DHT22;3541;53.230;10.518;2024-03-23T01:38:25;8.50;99.90
7002;DHT22;3541;53.230;10.518;2024-03-23T01:40:56;8.30;99.90
7002;DHT22;3541;53.230;10.518;2024-03-23T01:43:24;8.20;99.90
7002;DHT22;3541;53.230;10.518;2024-03-23T01:45:50;8.30;99.90
7002;DHT22;3541;53.230;10.518;2024-03-23T01:48:19;8.10;99.90
7002;DHT22;3541;53.230;10.518;2024-03-23T01:50:45;8.10;99.90
7002;DHT22;3541;53.230;10.518;2024-03-23T01:53:12;8.20;99.90
7002;DHT22;3541;53.230;10.518;2024-03-23T01:55:40;8.10;99.90
7002;DHT22;3541;53.230;10.518;2024-03-23T01:58:07;8.20;99.90
7002;DHT22;3541;53.230;10.518;2024-03-23T02:00:34;8.20;99.90
7002;DHT22;3541;53.230;10.518;2024-03-23T02:03:00;8.20;99.90
7002;DHT22;3541;53.230;10.518;2024-03-23T02:05:26;8.20;99.90
7002;DHT22;3541;53.230;10.518;2024-03-23T02:07:52;8.10;99.90
7002;DHT22;3541;53.230;10.518;2024-03-23T02:10:18;8.10;99.90
7002;DHT22;3541;53.230;10.518;2024-03-23T02:12:45;8.10;99.90
7002;DHT22;3541;53.230;10.518;2024-03-23T02:15:11;8.20;99.90
7002;DHT22;3541;53.230;10.518;2024-03-23T02:17:39;8.20;99.90
7002;DHT22;3541;53.230;10.518;2024-03-23T02:20:05;8.20;99.90
7002;DHT22;3541;53.230;10.518;2024-03-23T02:22:38;8.20;99.90
7002;DHT22;3541;53.230;10.518;2024-03-23T02:25:07;8.20;99.90
7002;DHT22;3541;53.230;10.518;2024-03-23T02:27:33;8.20;99.90
7002;DHT22;3541;53.230;10.518;2024-03-23T02:30:00;8.20;99.90
7002;DHT22;3541;53.230;10.518;2024-03-23T02:32:25;8.20;99.90
7002;DHT22;3541;53.230;10.518;2024-03-23T02:34:52;8.20;99.90
7002;DHT22;3541;53.230;10.518;2024-03-23T02:37:18;8.20;99.90
7002;DHT22;3541;53.230;10.518;2024-03-23T02:39:44;8.20;99.90
7002;DHT22;3541;53.230;10.518;2024-03-23T02:42:11;8.10;99.90
7002;DHT22;3541;53.230;10.518;2024-03-23T02:44:38;8.20;99.90
7002;DHT22;3541;53.230;10.518;2024-03-23T02:47:04;8.20;99.90
7002;DHT22;3541;53.230;10.518;2024-03-23T02:49:30;8.10;99.90
7002;DHT22;3541;53.230;10.518;2024-03-23T02:51:57;8.10;99.90
7002;DHT22;3541;53.230;10.518;2024-03-23T02:54:23;8.00;99.90
7002;DHT22;3541;53.230;10.518;2024-03-23T02:56:49;7.90;99.90
7002;DHT22;3541;53.230;10.518;2024-03-23T02:59:16;7.90;99.90
7002;DHT22;3541;53.230;10.518;2024-03-23T03:01:43;7.80;99.90
7002;DHT22;3541;53.230;10.518;2024-03-23T03:04:08;7.70;99.90
7002;DHT22;3541;53.230;10.518;2024-03-23T03:06:35;7.80;99.90
7002;DHT22;3541;53.230;10.518;2024-03-23T03:09:01;7.80;99.90
7002;DHT22;3541;53.230;10.518;2024-03-23T03:11:27;7.80;99.90
7002;DHT22;3541;53.230;10.518;2024-03-23T03:13:53;7.60;99.90
7002;DHT22;3541;53.230;10.518;2024-03-23T03:16:21;7.50;99.90
7002;DHT22;3541;53.230;10.518;2024-03-23T03:18:46;7.60;99.90
7002;DHT22;3541;53.230;10.518;2024-03-23T03:21:13;7.70;99.90
7002;DHT22;3541;53.230;10.518;2024-03-23T03:23:39;7.70;99.90
7002;DHT22;3541;53.230;10.518;2024-03-23T03:26:06;7.60;99.90
7002;DHT22;3541;53.230;10.518;2024-03-23T03:28:32;7.60;99.90
7002;DHT22;3541;53.230;10.518;2024-03-23T03:30:58;7.70;99.90
7002;DHT22;3541;53.230;10.518;2024-03-23T03:33:26;7.60;99.90
7002;DHT22;3541;53.230;10.518;2024-03-23T03:35:52;7.60;99.90
7002;DHT22;3541;53.230;10.518;2024-03-23T03:38:18;7.70;99.90
7002;DHT22;3541;53.230;10.518;2024-03-23T03:40:45;7.80;99.90
7002;DHT22;3541;53.230;10.518;2024-03-23T03:43:10;7.80;99.90
7002;DHT22;3541;53.230;10.518;2024-03-23T03:45:37;7.80;99.90
7002;DHT22;3541;53.230;10.518;2024-03-23T03:48:03;7.80;99.90
7002;DHT22;3541;53.230;10.518;2024-03-23T03:50:31;7.90;99.90
7002;DHT22;3541;53.230;10.518;2024-03-23T03:52:57;7.90;99.90
7002;DHT22;3541;53.230;10.518;2024-03-23T03:55:24;7.90;99.90
7002;DHT22;3541;53.230;10.518;2024-03-23T03:57:49;7.90;99.90
7002;DHT22;3541;53.230;10.518;2024-03-23T04:00:16;7.90;99.90
7002;DHT22;3541;53.230;10.518;2024-03-23T04:02:42;7.70;99.90
7002;DHT22;3541;53.230;10.518;2024-03-23T04:05:08;7.70;99.90
7002;DHT22;3541;53.230;10.518;2024-03-23T04:07:35;7.80;99.90
7002;DHT22;3541;53.230;10.518;2024-03-23T04:10:02;7.80;99.90
7002;DHT22;3541;53.230;10.518;2024-03-23T04:12:32;7.80;99.90
7002;DHT22;3541;53.230;10.518;2024-03-23T04:14:59;7.70;99.90
7002;DHT22;3541;53.230;10.518;2024-03-23T04:17:24;7.80;99.90
7002;DHT22;3541;53.230;10.518;2024-03-23T04:19:55;7.80;99.90
7002;DHT22;3541;53.230;10.518;2024-03-23T04:22:21;7.80;99.90
7002;DHT22;3541;53.230;10.518;2024-03-23T04:24:50;7.70;99.90
7002;DHT22;3541;53.230;10.518;2024-03-23T04:27:16;7.80;99.90
7002;DHT22;3541;53.230;10.518;2024-03-23T04:29:46;7.70;99.90
7002;DHT22;3541;53.230;10.518;2024-03-23T04:32:13;7.80;99.90
7002;DHT22;3541;53.230;10.518;2024-03-23T04:34:40;7.80;99.90
7002;DHT22;3541;53.230;10.518;2024-03-23T04:37:05;7.70;99.90
7002;DHT22;3541;53.230;10.518;2024-03-23T04:39:32;7.70;99.90
7002;DHT22;3541;53.230;10.518;2024-03-23T04:42:00;7.70;99.90
7002;DHT22;3541;53.230;10.518;2024-03-23T04:44:27;7.60;99.90
7002;DHT22;3541;53.230;10.518;2024-03-23T04:46:53;7.70;99.90
7002;DHT22;3541;53.230;10.518;2024-03-23T04:49:20;7.60;99.90
7002;DHT22;3541;53.230;10.518;2024-03-23T04:51:47;7.60;99.90
7002;DHT22;3541;53.230;10.518;2024-03-23T04:54:13;7.70;99.90
7002;DHT22;3541;53.230;10.518;2024-03-23T04:56:39;7.70;99.90
7002;DHT22;3541;53.230;10.518;2024-03-23T04:59:07;7.70;99.90
7002;DHT22;3541;53.230;10.518;2024-03-23T05:01:32;7.60;99.90
7002;DHT22;3541;53.230;10.518;2024-03-23T05:03:59;7.60;99.90
7002;DHT22;3541;53.230;10.518;2024-03-23T05:06:25;7.60;99.90
7002;DHT22;3541;53.230;10.518;2024-03-23T05:08:52;7.60;99.90
7002;DHT22;3541;53.230;10.518;2024-03-23T05:11:18;7.60;99.90
7002;DHT22;3541;53.230;10.518;2024-03-23T05:13:46;7.60;99.90
7002;DHT22;3541;53.230;10.518;2024-03-23T05:16:13;7.70;99.90
7002;DHT22;3541;53.230;10.518;2024-03-23T05:18:39;7.70;99.90
7002;DHT22;3541;53.230;10.518;2024-03-23T05:21:05;7.70;99.90
7002;DHT22;3541;53.230;10.518;2024-03-23T05:23:31;7.60;99.90
7002;DHT22;3541;53.230;10.518;2024-03-23T05:25:57;7.60;99.90
7002;DHT22;3541;53.230;10.518;2024-03-23T05:28:24;7.40;99.90
7002;DHT22;3541;53.230;10.518;2024-03-23T05:30:50;7.40;99.90
7002;DHT22;3541;53.230;10.518;2024-03-23T05:33:19;7.50;99.90
7002;DHT22;3541;53.230;10.518;2024-03-23T05:35:44;7.50;99.90
7002;DHT22;3541;53.230;10.518;2024-03-23T05:38:11;7.40;99.90
7002;DHT22;3541;53.230;10.518;2024-03-23T05:40:37;7.50;99.90
7002;DHT22;3541;53.230;10.518;2024-03-23T05:43:05;7.60;99.90
7002;DHT22;3541;53.230;10.518;2024-03-23T05:45:31;7.60;99.90
7002;DHT22;3541;53.230;10.518;2024-03-23T05:47:58;7.60;99.90
7002;DHT22;3541;53.230;10.518;2024-03-23T05:50:25;7.60;99.90
7002;DHT22;3541;53.230;10.518;2024-03-23T05:52:51;7.60;99.90
7002;DHT22;3541;53.230;10.518;2024-03-23T05:55:17;7.60;99.90
7002;DHT22;3541;53.230;10.518;2024-03-23T05:57:43;7.60;99.90
7002;DHT22;3541;53.230;10.518;2024-03-23T06:00:10;7.60;99.90
7002;DHT22;3541;53.230;10.518;2024-03-23T06:02:41;7.60;99.90
7002;DHT22;3541;53.230;10.518;2024-03-23T06:05:07;7.60;99.90
7002;DHT22;3541;53.230;10.518;2024-03-23T06:07:35;7.60;99.90
7002;DHT22;3541;53.230;10.518;2024-03-23T06:10:01;7.60;99.90
7002;DHT22;3541;53.230;10.518;2024-03-23T06:12:27;7.60;99.90
7002;DHT22;3541;53.230;10.518;2024-03-23T06:14:53;7.60;99.90
7002;DHT22;3541;53.230;10.518;2024-03-23T06:17:20;7.60;99.90
7002;DHT22;3541;53.230;10.518;2024-03-23T06:19:45;7.60;99.90
7002;DHT22;3541;53.230;10.518;2024-03-23T06:22:12;7.50;99.90
7002;DHT22;3541;53.230;10.518;2024-03-23T06:24:39;7.40;99.90
7002;DHT22;3541;53.230;10.518;2024-03-23T06:27:05;7.50;99.90
7002;DHT22;3541;53.230;10.518;2024-03-23T06:29:31;7.60;99.90
7002;DHT22;3541;53.230;10.518;2024-03-23T06:31:58;7.60;99.90
7002;DHT22;3541;53.230;10.518;2024-03-23T06:34:23;7.60;99.90
7002;DHT22;3541;53.230;10.518;2024-03-23T06:36:50;7.60;99.90
7002;DHT22;3541;53.230;10.518;2024-03-23T06:39:16;7.60;99.90
7002;DHT22;3541;53.230;10.518;2024-03-23T06:41:51;7.70;99.90
7002;DHT22;3541;53.230;10.518;2024-03-23T06:44:17;7.70;99.90
7002;DHT22;3541;53.230;10.518;2024-03-23T06:46:44;7.60;99.90
7002;DHT22;3541;53.230;10.518;2024-03-23T06:49:10;7.70;99.90
7002;DHT22;3541;53.230;10.518;2024-03-23T06:51:36;7.70;99.90
7002;DHT22;3541;53.230;10.518;2024-03-23T06:54:03;7.70;99.90
7002;DHT22;3541;53.230;10.518;2024-03-23T06:56:30;7.60;99.90
7002;DHT22;3541;53.230;10.518;2024-03-23T06:58:57;7.70;99.90
7002;DHT22;3541;53.230;10.518;2024-03-23T07:01:24;7.70;99.90
7002;DHT22;3541;53.230;10.518;2024-03-23T07:03:50;7.80;99.90
7002;DHT22;3541;53.230;10.518;2024-03-23T07:06:16;7.80;99.90
7002;DHT22;3541;53.230;10.518;2024-03-23T07:08:42;7.80;99.90
7002;DHT22;3541;53.230;10.518;2024-03-23T07:11:08;7.90;99.90
7002;DHT22;3541;53.230;10.518;2024-03-23T07:13:34;7.90;99.90
7002;DHT22;3541;53.230;10.518;2024-03-23T07:16:02;8.00;99.90
7002;DHT22;3541;53.230;10.518;2024-03-23T07:18:28;8.00;99.90
7002;DHT22;3541;53.230;10.518;2024-03-23T07:20:55;8.10;99.90
7002;DHT22;3541;53.230;10.518;2024-03-23T07:23:22;7.80;99.90
7002;DHT22;3541;53.230;10.518;2024-03-23T07:25:56;7.70;99.90
7002;DHT22;3541;53.230;10.518;2024-03-23T07:28:22;7.90;99.90
7002;DHT22;3541;53.230;10.518;2024-03-23T07:30:49;7.90;99.90
7002;DHT22;3541;53.230;10.518;2024-03-23T07:33:25;8.00;99.90
7002;DHT22;3541;53.230;10.518;2024-03-23T07:35:51;8.10;99.90
7002;DHT22;3541;53.230;10.518;2024-03-23T07:38:17;8.10;99.90
7002;DHT22;3541;53.230;10.518;2024-03-23T07:40:44;8.10;99.90
7002;DHT22;3541;53.230;10.518;2024-03-23T07:43:10;8.10;99.90
7002;DHT22;3541;53.230;10.518;2024-03-23T07:45:36;8.10;99.90
7002;DHT22;3541;53.230;10.518;2024-03-23T07:48:03;8.00;99.90
7002;DHT22;3541;53.230;10.518;2024-03-23T07:50:30;8.00;99.90
7002;DHT22;3541;53.230;10.518;2024-03-23T07:52:56;8.10;99.90
7002;DHT22;3541;53.230;10.518;2024-03-23T07:55:22;8.20;99.90
7002;DHT22;3541;53.230;10.518;2024-03-23T07:57:51;8.30;99.90
7002;DHT22;3541;53.230;10.518;2024-03-23T08:00:17;8.30;99.90
7002;DHT22;3541;53.230;10.518;2024-03-23T08:02:43;8.40;99.90
7002;DHT22;3541;53.230;10.518;2024-03-23T08:05:09;8.40;99.90
7002;DHT22;3541;53.230;10.518;2024-03-23T08:07:37;8.50;99.90
7002;DHT22;3541;53.230;10.518;2024-03-23T08:10:03;8.50;99.90
7002;DHT22;3541;53.230;10.518;2024-03-23T08:12:30;8.50;99.90
7002;DHT22;3541;53.230;10.518;2024-03-23T08:14:55;8.40;99.90
7002;DHT22;3541;53.230;10.518;2024-03-23T08:17:23;8.40;99.90
7002;DHT22;3541;53.230;10.518;2024-03-23T08:19:48;8.30;99.90
7002;DHT22;3541;53.230;10.518;2024-03-23T08:22:15;8.20;99.90
7002;DHT22;3541;53.230;10.518;2024-03-23T08:24:42;8.30;99.90
7002;DHT22;3541;53.230;10.518;2024-03-23T08:27:08;8.50;99.90
7002;DHT22;3541;53.230;10.518;2024-03-23T08:29:34;8.50;99.90
7002;DHT22;3541;53.230;10.518;2024-03-23T08:32:01;8.60;99.90
7002;DHT22;3541;53.230;10.518;2024-03-23T08:34:26;8.70;99.90
7002;DHT22;3541;53.230;10.518;2024-03-23T08:36:53;8.70;99.90
7002;DHT22;3541;53.230;10.518;2024-03-23T08:39:18;8.70;99.90
7002;DHT22;3541;53.230;10.518;2024-03-23T08:41:46;8.70;99.90
7002;DHT22;3541;53.230;10.518;2024-03-23T08:44:12;8.80;99.90
7002;DHT22;3541;53.230;10.518;2024-03-23T08:46:39;8.80;99.90
7002;DHT22;3541;53.230;10.518;2024-03-23T08:49:04;8.80;99.90
7002;DHT22;3541;53.230;10.518;2024-03-23T08:51:31;8.90;99.90
7002;DHT22;3541;53.230;10.518;2024-03-23T08:53:56;9.00;99.90
7002;DHT22;3541;53.230;10.518;2024-03-23T08:56:23;9.10;99.90
7002;DHT22;3541;53.230;10.518;2024-03-23T08:58:50;9.10;99.90
7002;DHT22;3541;53.230;10.518;2024-03-23T09:01:16;9.10;99.90
7002;DHT22;3541;53.230;10.518;2024-03-23T09:03:42;9.10;99.90
7002;DHT22;3541;53.230;10.518;2024-03-23T09:06:10;9.10;99.90
7002;DHT22;3541;53.230;10.518;2024-03-23T09:08:35;9.20;99.90
7002;DHT22;3541;53.230;10.518;2024-03-23T09:11:04;9.20;99.90
7002;DHT22;3541;53.230;10.518;2024-03-23T09:13:31;9.30;99.90
7002;DHT22;3541;53.230;10.518;2024-03-23T09:15:59;9.40;99.90
7002;DHT22;3541;53.230;10.518;2024-03-23T09:18:25;9.40;99.90
7002;DHT22;3541;53.230;10.518;2024-03-23T09:20:52;9.50;99.90
7002;DHT22;3541;53.230;10.518;2024-03-23T09:23:18;9.40;99.90
7002;DHT22;3541;53.230;10.518;2024-03-23T09:25:45;9.40;99.90
7002;DHT22;3541;53.230;10.518;2024-03-23T09:28:11;9.30;99.90
7002;DHT22;3541;53.230;10.518;2024-03-23T09:30:37;9.30;99.90
7002;DHT22;3541;53.230;10.518;2024-03-23T09:33:09;9.20;99.90
7002;DHT22;3541;53.230;10.518;2024-03-23T09:35:37;9.30;99.90
7002;DHT22;3541;53.230;10.518;2024-03-23T09:38:03;9.40;99.90
7002;DHT22;3541;53.230;10.518;2024-03-23T09:40:29;9.50;99.90
7002;DHT22;3541;53.230;10.518;2024-03-23T09:42:55;9.50;99.90
7002;DHT22;3541;53.230;10.518;2024-03-23T09:45:26;9.50;99.90
7002;DHT22;3541;53.230;10.518;2024-03-23T09:47:52;9.30;99.90
7002;DHT22;3541;53.230;10.518;2024-03-23T09:50:20;9.20;99.90
7002;DHT22;3541;53.230;10.518;2024-03-23T09:52:46;9.20;99.90
7002;DHT22;3541;53.230;10.518;2024-03-23T09:55:13;9.20;99.90
7002;DHT22;3541;53.230;10.518;2024-03-23T09:57:39;9.30;99.90
7002;DHT22;3541;53.230;10.518;2024-03-23T10:00:06;9.40;99.90
7002;DHT22;3541;53.230;10.518;2024-03-23T10:02:33;9.70;99.90
7002;DHT22;3541;53.230;10.518;2024-03-23T10:05:00;9.80;99.90
7002;DHT22;3541;53.230;10.518;2024-03-23T10:07:27;10.00;99.90
7002;DHT22;3541;53.230;10.518;2024-03-23T10:09:55;10.10;99.90
7002;DHT22;3541;53.230;10.518;2024-03-23T10:12:23;9.90;99.90
7002;DHT22;3541;53.230;10.518;2024-03-23T10:14:50;9.80;99.90
7002;DHT22;3541;53.230;10.518;2024-03-23T10:17:17;9.60;99.90
7002;DHT22;3541;53.230;10.518;2024-03-23T10:19:44;9.60;99.90
7002;DHT22;3541;53.230;10.518;2024-03-23T10:22:13;9.80;99.90
7002;DHT22;3541;53.230;10.518;2024-03-23T10:24:41;10.00;99.90
7002;DHT22;3541;53.230;10.518;2024-03-23T10:27:06;10.20;99.90
7002;DHT22;3541;53.230;10.518;2024-03-23T10:29:33;10.30;99.90
7002;DHT22;3541;53.230;10.518;2024-03-23T10:32:09;10.30;99.90
7002;DHT22;3541;53.230;10.518;2024-03-23T10:34:36;10.50;99.90
7002;DHT22;3541;53.230;10.518;2024-03-23T10:37:03;10.50;99.90
7002;DHT22;3541;53.230;10.518;2024-03-23T10:39:31;10.60;99.90
7002;DHT22;3541;53.230;10.518;2024-03-23T10:42:01;10.50;99.90
7002;DHT22;3541;53.230;10.518;2024-03-23T10:44:28;10.40;99.90
7002;DHT22;3541;53.230;10.518;2024-03-23T10:46:56;10.30;99.90
7002;DHT22;3541;53.230;10.518;2024-03-23T10:49:25;10.20;99.90
7002;DHT22;3541;53.230;10.518;2024-03-23T10:51:53;10.00;99.90
7002;DHT22;3541;53.230;10.518;2024-03-23T10:54:19;9.80;99.90
7002;DHT22;3541;53.230;10.518;2024-03-23T10:56:46;9.90;99.90
7002;DHT22;3541;53.230;10.518;2024-03-23T10:59:15;9.90;99.90
7002;DHT22;3541;53.230;10.518;2024-03-23T11:01:54;10.00;99.90
7002;DHT22;3541;53.230;10.518;2024-03-23T11:04:32;10.30;99.90
7002;DHT22;3541;53.230;10.518;2024-03-23T11:06:58;10.60;99.90
7002;DHT22;3541;53.230;10.518;2024-03-23T11:09:41;10.70;99.90
7002;DHT22;3541;53.230;10.518;2024-03-23T11:12:26;10.60;99.90
7002;DHT22;3541;53.230;10.518;2024-03-23T11:14:56;10.20;99.90
7002;DHT22;3541;53.230;10.518;2024-03-23T11:17:24;10.10;99.90
7002;DHT22;3541;53.230;10.518;2024-03-23T11:19:54;10.00;99.90
7002;DHT22;3541;53.230;10.518;2024-03-23T11:22:41;9.90;99.90
7002;DHT22;3541;53.230;10.518;2024-03-23T11:25:15;10.30;99.90
7002;DHT22;3541;53.230;10.518;2024-03-23T11:27:41;10.50;99.90
7002;DHT22;3541;53.230;10.518;2024-03-23T11:30:16;10.70;99.90
7002;DHT22;3541;53.230;10.518;2024-03-23T11:32:44;11.00;99.90
7002;DHT22;3541;53.230;10.518;2024-03-23T11:35:10;10.90;99.90
7002;DHT22;3541;53.230;10.518;2024-03-23T11:37:37;11.10;99.90
7002;DHT22;3541;53.230;10.518;2024-03-23T11:40:20;11.20;99.90
7002;DHT22;3541;53.230;10.518;2024-03-23T11:42:46;11.10;99.90
7002;DHT22;3541;53.230;10.518;2024-03-23T11:45:14;11.00;99.90
7002;DHT22;3541;53.230;10.518;2024-03-23T11:47:41;10.70;99.90
7002;DHT22;3541;53.230;10.518;2024-03-23T11:50:08;10.60;99.90
7002;DHT22;3541;53.230;10.518;2024-03-23T11:52:34;10.40;99.90
7002;DHT22;3541;53.230;10.518;2024-03-23T11:55:03;10.30;99.90
7002;DHT22;3541;53.230;10.518;2024-03-23T11:57:29;10.10;99.90
7002;DHT22;3541;53.230;10.518;2024-03-23T11:59:56;10.10;99.90
7002;DHT22;3541;53.230;10.518;2024-03-23T12:02:23;10.00;99.90
7002;DHT22;3541;53.230;10.518;2024-03-23T12:04:49;9.90;99.90
7002;DHT22;3541;53.230;10.518;2024-03-23T12:07:16;9.80;99.90
7002;DHT22;3541;53.230;10.518;2024-03-23T12:09:44;9.70;99.90
7002;DHT22;3541;53.230;10.518;2024-03-23T12:12:14;9.90;99.90
7002;DHT22;3541;53.230;10.518;2024-03-23T12:14:41;10.20;99.90
7002;DHT22;3541;53.230;10.518;2024-03-23T12:17:11;10.60;99.90
7002;DHT22;3541;53.230;10.518;2024-03-23T12:19:40;10.80;99.90
7002;DHT22;3541;53.230;10.518;2024-03-23T12:22:07;11.00;99.90
7002;DHT22;3541;53.230;10.518;2024-03-23T12:24:34;11.20;99.90
7002;DHT22;3541;53.230;10.518;2024-03-23T12:27:00;11.20;99.90
7002;DHT22;3541;53.230;10.518;2024-03-23T12:29:29;10.90;99.90
7002;DHT22;3541;53.230;10.518;2024-03-23T12:31:54;10.80;99.90
7002;DHT22;3541;53.230;10.518;2024-03-23T12:34:21;10.60;99.90
7002;DHT22;3541;53.230;10.518;2024-03-23T12:36:48;10.60;99.90
7002;DHT22;3541;53.230;10.518;2024-03-23T12:39:15;10.40;99.90
7002;DHT22;3541;53.230;10.518;2024-03-23T12:41:40;10.20;99.90
7002;DHT22;3541;53.230;10.518;2024-03-23T12:44:07;10.10;99.90
7002;DHT22;3541;53.230;10.518;2024-03-23T12:46:33;10.10;99.90
7002;DHT22;3541;53.230;10.518;2024-03-23T12:49:00;9.90;99.90
7002;DHT22;3541;53.230;10.518;2024-03-23T12:51:26;10.00;99.90
7002;DHT22;3541;53.230;10.518;2024-03-23T12:53:53;9.90;99.90
7002;DHT22;3541;53.230;10.518;2024-03-23T12:56:19;9.90;99.90
7002;DHT22;3541;53.230;10.518;2024-03-23T12:58:46;10.30;99.90
7002;DHT22;3541;53.230;10.518;2024-03-23T13:01:15;10.90;99.90
7002;DHT22;3541;53.230;10.518;2024-03-23T13:03:42;11.20;99.90
7002;DHT22;3541;53.230;10.518;2024-03-23T13:06:09;11.40;99.90
7002;DHT22;3541;53.230;10.518;2024-03-23T13:08:36;11.70;99.90
7002;DHT22;3541;53.230;10.518;2024-03-23T13:11:03;11.50;99.90
7002;DHT22;3541;53.230;10.518;2024-03-23T13:13:30;11.20;99.90
7002;DHT22;3541;53.230;10.518;2024-03-23T13:15:57;11.40;99.90
7002;DHT22;3541;53.230;10.518;2024-03-23T13:18:23;11.20;99.90
7002;DHT22;3541;53.230;10.518;2024-03-23T13:20:49;11.40;99.90
7002;DHT22;3541;53.230;10.518;2024-03-23T13:23:15;11.30;99.90
7002;DHT22;3541;53.230;10.518;2024-03-23T13:25:49;10.90;99.90
7002;DHT22;3541;53.230;10.518;2024-03-23T13:28:17;10.70;99.90
7002;DHT22;3541;53.230;10.518;2024-03-23T13:30:50;10.50;99.90
7002;DHT22;3541;53.230;10.518;2024-03-23T13:33:16;10.20;99.90
7002;DHT22;3541;53.230;10.518;2024-03-23T13:35:49;9.30;99.90
7002;DHT22;3541;53.230;10.518;2024-03-23T13:38:15;8.50;99.90
7002;DHT22;3541;53.230;10.518;2024-03-23T13:40:50;8.40;99.90
7002;DHT22;3541;53.230;10.518;2024-03-23T13:43:17;8.40;99.90
7002;DHT22;3541;53.230;10.518;2024-03-23T13:45:43;8.20;99.90
7002;DHT22;3541;53.230;10.518;2024-03-23T13:48:10;8.20;99.90
7002;DHT22;3541;53.230;10.518;2024-03-23T13:50:35;7.90;99.90
7002;DHT22;3541;53.230;10.518;2024-03-23T13:53:02;7.80;99.90
7002;DHT22;3541;53.230;10.518;2024-03-23T13:55:27;7.90;99.90
7002;DHT22;3541;53.230;10.518;2024-03-23T13:57:54;8.00;99.90
7002;DHT22;3541;53.230;10.518;2024-03-23T14:00:21;8.10;99.90
7002;DHT22;3541;53.230;10.518;2024-03-23T14:02:48;8.10;99.90
7002;DHT22;3541;53.230;10.518;2024-03-23T14:05:14;8.00;99.90
7002;DHT22;3541;53.230;10.518;2024-03-23T14:07:42;7.80;99.90
7002;DHT22;3541;53.230;10.518;2024-03-23T14:10:08;7.70;99.90
7002;DHT22;3541;53.230;10.518;2024-03-23T14:12:36;7.60;99.90
7002;DHT22;3541;53.230;10.518;2024-03-23T14:15:05;7.30;99.90
7002;DHT22;3541;53.230;10.518;2024-03-23T14:17:33;7.40;99.90
7002;DHT22;3541;53.230;10.518;2024-03-23T14:19:59;7.30;99.90
7002;DHT22;3541;53.230;10.518;2024-03-23T14:22:26;7.30;99.90
7002;DHT22;3541;53.230;10.518;2024-03-23T14:24:52;6.90;99.90
7002;DHT22;3541;53.230;10.518;2024-03-23T14:27:19;7.10;99.90
7002;DHT22;3541;53.230;10.518;2024-03-23T14:29:45;7.10;99.90
7002;DHT22;3541;53.230;10.518;2024-03-23T14:32:12;7.10;99.90
7002;DHT22;3541;53.230;10.518;2024-03-23T14:34:39;6.80;99.90
7002;DHT22;3541;53.230;10.518;2024-03-23T14:37:06;6.70;99.90
7002;DHT22;3541;53.230;10.518;2024-03-23T14:39:32;6.90;99.90
7002;DHT22;3541;53.230;10.518;2024-03-23T14:42:00;6.70;99.90
7002;DHT22;3541;53.230;10.518;2024-03-23T14:44:26;6.90;99.90
7002;DHT22;3541;53.230;10.518;2024-03-23T14:46:53;7.10;99.90
7002;DHT22;3541;53.230;10.518;2024-03-23T14:49:19;7.30;99.90
7002;DHT22;3541;53.230;10.518;2024-03-23T14:51:47;7.40;99.90
7002;DHT22;3541;53.230;10.518;2024-03-23T14:54:13;7.30;99.90
7002;DHT22;3541;53.230;10.518;2024-03-23T14:56:39;7.20;99.90
7002;DHT22;3541;53.230;10.518;2024-03-23T14:59:05;7.20;99.90
7002;DHT22;3541;53.230;10.518;2024-03-23T15:01:32;7.30;99.90
7002;DHT22;3541;53.230;10.518;2024-03-23T15:03:58;7.70;99.90
7002;DHT22;3541;53.230;10.518;2024-03-23T15:06:25;8.30;99.90
7002;DHT22;3541;53.230;10.518;2024-03-23T15:08:51;9.00;99.90
7002;DHT22;3541;53.230;10.518;2024-03-23T15:11:19;9.40;99.90
7002;DHT22;3541;53.230;10.518;2024-03-23T15:13:45;9.40;99.90
7002;DHT22;3541;53.230;10.518;2024-03-23T15:16:17;9.70;99.90
7002;DHT22;3541;53.230;10.518;2024-03-23T15:18:43;9.70;99.90
7002;DHT22;3541;53.230;10.518;2024-03-23T15:21:09;10.00;99.90
7002;DHT22;3541;53.230;10.518;2024-03-23T15:23:36;10.10;99.90
7002;DHT22;3541;53.230;10.518;2024-03-23T15:26:04;10.20;99.90
7002;DHT22;3541;53.230;10.518;2024-03-23T15:28:31;10.00;99.90
7002;DHT22;3541;53.230;10.518;2024-03-23T15:31:07;10.10;99.90
7002;DHT22;3541;53.230;10.518;2024-03-23T15:33:33;10.30;99.90
7002;DHT22;3541;53.230;10.518;2024-03-23T15:36:00;10.20;99.90
7002;DHT22;3541;53.230;10.518;2024-03-23T15:38:25;10.20;99.90
7002;DHT22;3541;53.230;10.518;2024-03-23T15:40:52;10.30;99.90
7002;DHT22;3541;53.230;10.518;2024-03-23T15:43:19;10.70;99.90
7002;DHT22;3541;53.230;10.518;2024-03-23T15:45:53;11.00;99.90
7002;DHT22;3541;53.230;10.518;2024-03-23T15:48:19;11.10;99.90
7002;DHT22;3541;53.230;10.518;2024-03-23T15:50:50;11.10;99.90
7002;DHT22;3541;53.230;10.518;2024-03-23T15:53:17;10.80;99.90
7002;DHT22;3541;53.230;10.518;2024-03-23T15:55:44;10.50;99.90
7002;DHT22;3541;53.230;10.518;2024-03-23T15:58:10;10.10;99.90
7002;DHT22;3541;53.230;10.518;2024-03-23T16:00:37;9.60;99.90
7002;DHT22;3541;53.230;10.518;2024-03-23T16:03:03;9.30;99.90
7002;DHT22;3541;53.230;10.518;2024-03-23T16:05:30;8.80;99.90
7002;DHT22;3541;53.230;10.518;2024-03-23T16:07:55;8.70;99.90
7002;DHT22;3541;53.230;10.518;2024-03-23T16:10:22;9.20;99.90
7002;DHT22;3541;53.230;10.518;2024-03-23T16:12:48;9.70;99.90
7002;DHT22;3541;53.230;10.518;2024-03-23T16:15:15;10.20;99.90
7002;DHT22;3541;53.230;10.518;2024-03-23T16:17:42;10.50;99.90
7002;DHT22;3541;53.230;10.518;2024-03-23T16:20:09;10.40;99.90
7002;DHT22;3541;53.230;10.518;2024-03-23T16:22:35;10.40;99.90
7002;DHT22;3541;53.230;10.518;2024-03-23T16:25:01;10.40;99.90
7002;DHT22;3541;53.230;10.518;2024-03-23T16:27:28;10.40;99.90
7002;DHT22;3541;53.230;10.518;2024-03-23T16:29:55;10.50;99.90
7002;DHT22;3541;53.230;10.518;2024-03-23T16:32:20;10.50;99.90
7002;DHT22;3541;53.230;10.518;2024-03-23T16:34:50;10.80;99.90
7002;DHT22;3541;53.230;10.518;2024-03-23T16:37:15;10.40;99.90
7002;DHT22;3541;53.230;10.518;2024-03-23T16:39:42;10.20;99.90
7002;DHT22;3541;53.230;10.518;2024-03-23T16:42:07;9.50;99.90
7002;DHT22;3541;53.230;10.518;2024-03-23T16:44:34;9.30;99.90
7002;DHT22;3541;53.230;10.518;2024-03-23T16:47:00;9.00;99.90